sensor_id;sensor_type;location;lat;lon;timestamp;temperature;humidity
21259;DHT22;10787;53.364;-1.480;2023-06-10T00:00:37;13.10;99.90
21259;DHT22;10787;53.364;-1.480;2023-06-10T00:03:22;13.10;99.90
21259;DHT22;10787;53.364;-1.480;2023-06-10T00:06:08;13.10;99.90
21259;DHT22;10787;53.364;-1.480;2023-06-10T00:08:52;13.10;99.90
21259;DHT22;10787;53.364;-1.480;2023-06-10T00:11:37;13.10;99.90
21259;DHT22;10787;53.364;-1.480;2023-06-10T00:14:21;13.20;99.90
21259;DHT22;10787;53.364;-1.480;2023-06-10T00:17:06;13.10;99.90
21259;DHT22;10787;53.364;-1.480;2023-06-10T00:19:53;13.10;99.90
21259;DHT22;10787;53.364;-1.480;2023-06-10T00:22:38;13.10;99.90
21259;DHT22;10787;53.364;-1.480;2023-06-10T00:25:23;13.10;99.90
21259;DHT22;10787;53.364;-1.480;2023-06-10T00:28:08;13.00;99.90
21259;DHT22;10787;53.364;-1.480;2023-06-10T00:30:52;13.00;99.90
21259;DHT22;10787;53.364;-1.480;2023-06-10T00:33:36;13.00;99.90
21259;DHT22;10787;53.364;-1.480;2023-06-10T00:36:21;13.00;99.90
21259;DHT22;10787;53.364;-1.480;2023-06-10T00:39:05;13.10;99.90
21259;DHT22;10787;53.364;-1.480;2023-06-10T00:41:49;13.00;99.90
21259;DHT22;10787;53.364;-1.480;2023-06-10T00:44:34;12.90;99.90
21259;DHT22;10787;53.364;-1.480;2023-06-10T00:47:18;12.90;99.90
21259;DHT22;10787;53.364;-1.480;2023-06-10T00:50:04;12.90;99.90
21259;DHT22;10787;53.364;-1.480;2023-06-10T00:52:49;12.80;99.90
21259;DHT22;10787;53.364;-1.480;2023-06-10T00:55:35;12.80;99.90
21259;DHT22;10787;53.364;-1.480;2023-06-10T00:58:19;12.80;99.90
21259;DHT22;10787;53.364;-1.480;2023-06-10T01:01:05;12.80;99.90
21259;DHT22;10787;53.364;-1.480;2023-06-10T01:03:49;12.60;99.90
21259;DHT22;10787;53.364;-1.480;2023-06-10T01:09:30;12.60;99.90
21259;DHT22;10787;53.364;-1.480;2023-06-10T01:15:14;12.50;99.90
21259;DHT22;10787;53.364;-1.480;2023-06-10T01:20:46;12.50;99.90
21259;DHT22;10787;53.364;-1.480;2023-06-10T01:23:30;12.50;99.90
21259;DHT22;10787;53.364;-1.480;2023-06-10T01:26:15;12.50;99.90
21259;DHT22;10787;53.364;-1.480;2023-06-10T01:29:08;12.60;99.90
21259;DHT22;10787;53.364;-1.480;2023-06-10T01:31:56;12.60;99.90
21259;DHT22;10787;53.364;-1.480;2023-06-10T01:34:44;12.60;99.90
21259;DHT22;10787;53.364;-1.480;2023-06-10T01:37:30;12.60;99.90
21259;DHT22;10787;53.364;-1.480;2023-06-10T01:40:16;12.60;99.90
21259;DHT22;10787;53.364;-1.480;2023-06-10T01:43:00;12.60;99.90
21259;DHT22;10787;53.364;-1.480;2023-06-10T01:45:45;12.50;99.90
21259;DHT22;10787;53.364;-1.480;2023-06-10T01:48:29;12.60;99.90
21259;DHT22;10787;53.364;-1.480;2023-06-10T01:51:14;12.60;99.90
21259;DHT22;10787;53.364;-1.480;2023-06-10T01:53:59;12.70;99.90
21259;DHT22;10787;53.364;-1.480;2023-06-10T01:56:43;12.60;99.90
21259;DHT22;10787;53.364;-1.480;2023-06-10T01:59:27;12.60;99.90
21259;DHT22;10787;53.364;-1.480;2023-06-10T02:02:12;12.50;99.90
21259;DHT22;10787;53.364;-1.480;2023-06-10T02:04:56;12.50;99.90
21259;DHT22;10787;53.364;-1.480;2023-06-10T02:07:41;12.50;99.90
21259;DHT22;10787;53.364;-1.480;2023-06-10T02:10:25;12.40;99.90
21259;DHT22;10787;53.364;-1.480;2023-06-10T02:13:09;12.40;99.90
21259;DHT22;10787;53.364;-1.480;2023-06-10T02:15:54;12.30;99.90
21259;DHT22;10787;53.364;-1.480;2023-06-10T02:18:40;12.30;99.90
21259;DHT22;10787;53.364;-1.480;2023-06-10T02:21:27;12.20;99.90
21259;DHT22;10787;53.364;-1.480;2023-06-10T02:24:11;12.20;1.00
21259;DHT22;10787;53.364;-1.480;2023-06-10T02:26:55;12.20;1.00
21259;DHT22;10787;53.364;-1.480;2023-06-10T02:29:40;12.10;1.00
21259;DHT22;10787;53.364;-1.480;2023-06-10T02:32:25;12.10;1.00
21259;DHT22;10787;53.364;-1.480;2023-06-10T02:35:09;12.10;1.00
21259;DHT22;10787;53.364;-1.480;2023-06-10T02:37:56;12.10;99.90
21259;DHT22;10787;53.364;-1.480;2023-06-10T02:40:40;12.10;1.00
21259;DHT22;10787;53.364;-1.480;2023-06-10T02:43:24;12.10;1.00
21259;DHT22;10787;53.364;-1.480;2023-06-10T02:46:09;12.10;1.00
21259;DHT22;10787;53.364;-1.480;2023-06-10T02:48:54;12.10;1.00
21259;DHT22;10787;53.364;-1.480;2023-06-10T02:51:39;12.20;1.00
21259;DHT22;10787;53.364;-1.480;2023-06-10T02:54:24;12.20;1.00
21259;DHT22;10787;53.364;-1.480;2023-06-10T02:57:08;12.20;1.00
21259;DHT22;10787;53.364;-1.480;2023-06-10T02:59:54;12.20;1.00
21259;DHT22;10787;53.364;-1.480;2023-06-10T03:02:39;12.20;1.00
21259;DHT22;10787;53.364;-1.480;2023-06-10T03:05:23;12.20;1.00
21259;DHT22;10787;53.364;-1.480;2023-06-10T03:08:07;12.30;1.00
21259;DHT22;10787;53.364;-1.480;2023-06-10T03:10:51;12.30;1.00
21259;DHT22;10787;53.364;-1.480;2023-06-10T03:13:35;12.30;1.00
21259;DHT22;10787;53.364;-1.480;2023-06-10T03:16:19;12.30;1.00
21259;DHT22;10787;53.364;-1.480;2023-06-10T03:19:04;12.20;1.00
21259;DHT22;10787;53.364;-1.480;2023-06-10T03:21:57;12.20;1.00
21259;DHT22;10787;53.364;-1.480;2023-06-10T03:24:42;12.10;1.00
21259;DHT22;10787;53.364;-1.480;2023-06-10T03:27:27;12.00;1.00
21259;DHT22;10787;53.364;-1.480;2023-06-10T03:30:13;12.00;1.00
21259;DHT22;10787;53.364;-1.480;2023-06-10T03:32:58;11.90;1.00
21259;DHT22;10787;53.364;-1.480;2023-06-10T03:35:42;12.00;1.00
21259;DHT22;10787;53.364;-1.480;2023-06-10T03:38:26;11.90;1.00
21259;DHT22;10787;53.364;-1.480;2023-06-10T03:41:10;11.90;1.00
21259;DHT22;10787;53.364;-1.480;2023-06-10T03:43:54;11.90;1.00
21259;DHT22;10787;53.364;-1.480;2023-06-10T03:46:39;11.90;1.00
21259;DHT22;10787;53.364;-1.480;2023-06-10T03:49:23;12.00;1.00
21259;DHT22;10787;53.364;-1.480;2023-06-10T03:52:10;12.00;1.00
21259;DHT22;10787;53.364;-1.480;2023-06-10T03:54:55;12.10;1.00
21259;DHT22;10787;53.364;-1.480;2023-06-10T03:57:39;12.10;1.00
21259;DHT22;10787;53.364;-1.480;2023-06-10T04:00:23;12.10;1.00
21259;DHT22;10787;53.364;-1.480;2023-06-10T04:03:08;12.10;1.00
21259;DHT22;10787;53.364;-1.480;2023-06-10T04:05:59;12.10;1.00
21259;DHT22;10787;53.364;-1.480;2023-06-10T04:08:43;12.10;1.00
21259;DHT22;10787;53.364;-1.480;2023-06-10T04:11:28;12.10;1.00
21259;DHT22;10787;53.364;-1.480;2023-06-10T04:14:12;12.10;1.00
21259;DHT22;10787;53.364;-1.480;2023-06-10T04:16:57;12.10;1.00
21259;DHT22;10787;53.364;-1.480;2023-06-10T04:19:41;12.10;1.00
21259;DHT22;10787;53.364;-1.480;2023-06-10T04:22:26;12.10;1.00
21259;DHT22;10787;53.364;-1.480;2023-06-10T04:25:10;12.10;1.00
21259;DHT22;10787;53.364;-1.480;2023-06-10T04:27:55;12.10;1.00
21259;DHT22;10787;53.364;-1.480;2023-06-10T04:30:39;12.20;1.00
21259;DHT22;10787;53.364;-1.480;2023-06-10T04:33:23;12.20;1.00
21259;DHT22;10787;53.364;-1.480;2023-06-10T04:36:08;12.20;1.00
21259;DHT22;10787;53.364;-1.480;2023-06-10T04:38:52;12.20;1.00
21259;DHT22;10787;53.364;-1.480;2023-06-10T04:41:36;12.20;1.00
21259;DHT22;10787;53.364;-1.480;2023-06-10T04:44:20;12.30;1.00
21259;DHT22;10787;53.364;-1.480;2023-06-10T04:47:05;12.20;1.00
21259;DHT22;10787;53.364;-1.480;2023-06-10T04:49:51;12.30;1.00
21259;DHT22;10787;53.364;-1.480;2023-06-10T04:52:36;12.30;1.00
21259;DHT22;10787;53.364;-1.480;2023-06-10T04:55:20;12.20;1.00
21259;DHT22;10787;53.364;-1.480;2023-06-10T04:58:05;12.20;1.00
21259;DHT22;10787;53.364;-1.480;2023-06-10T05:00:49;12.30;1.00
21259;DHT22;10787;53.364;-1.480;2023-06-10T05:03:33;12.40;1.00
21259;DHT22;10787;53.364;-1.480;2023-06-10T05:06:18;12.50;1.00
21259;DHT22;10787;53.364;-1.480;2023-06-10T05:09:03;12.50;1.00
21259;DHT22;10787;53.364;-1.480;2023-06-10T05:11:47;12.50;1.00
21259;DHT22;10787;53.364;-1.480;2023-06-10T05:14:32;12.50;1.00
21259;DHT22;10787;53.364;-1.480;2023-06-10T05:17:16;12.50;1.00
21259;DHT22;10787;53.364;-1.480;2023-06-10T05:20:01;12.60;1.00
21259;DHT22;10787;53.364;-1.480;2023-06-10T05:22:46;12.50;1.00
21259;DHT22;10787;53.364;-1.480;2023-06-10T05:25:31;12.50;1.00
21259;DHT22;10787;53.364;-1.480;2023-06-10T05:28:16;12.60;1.00
21259;DHT22;10787;53.364;-1.480;2023-06-10T05:31:00;12.60;1.00
21259;DHT22;10787;53.364;-1.480;2023-06-10T05:33:44;12.60;1.00
21259;DHT22;10787;53.364;-1.480;2023-06-10T05:36:29;12.70;1.00
21259;DHT22;10787;53.364;-1.480;2023-06-10T05:39:14;12.70;1.00
21259;DHT22;10787;53.364;-1.480;2023-06-10T05:41:58;12.70;1.00
21259;DHT22;10787;53.364;-1.480;2023-06-10T05:44:43;12.70;1.00
21259;DHT22;10787;53.364;-1.480;2023-06-10T05:47:27;12.70;1.00
21259;DHT22;10787;53.364;-1.480;2023-06-10T05:50:12;12.80;1.00
21259;DHT22;10787;53.364;-1.480;2023-06-10T05:52:56;12.90;1.00
21259;DHT22;10787;53.364;-1.480;2023-06-10T05:55:42;13.00;1.00
21259;DHT22;10787;53.364;-1.480;2023-06-10T05:58:27;13.00;1.00
21259;DHT22;10787;53.364;-1.480;2023-06-10T06:01:11;13.20;1.00
21259;DHT22;10787;53.364;-1.480;2023-06-10T06:03:55;13.20;1.00
21259;DHT22;10787;53.364;-1.480;2023-06-10T06:06:40;13.30;1.00
21259;DHT22;10787;53.364;-1.480;2023-06-10T06:09:24;13.30;1.00
21259;DHT22;10787;53.364;-1.480;2023-06-10T06:12:09;13.40;1.00
21259;DHT22;10787;53.364;-1.480;2023-06-10T06:14:53;13.40;1.00
21259;DHT22;10787;53.364;-1.480;2023-06-10T06:17:37;13.50;1.00
21259;DHT22;10787;53.364;-1.480;2023-06-10T06:20:22;13.60;1.00
21259;DHT22;10787;53.364;-1.480;2023-06-10T06:23:07;13.60;1.00
21259;DHT22;10787;53.364;-1.480;2023-06-10T06:25:53;13.70;1.00
21259;DHT22;10787;53.364;-1.480;2023-06-10T06:28:38;13.80;1.00
21259;DHT22;10787;53.364;-1.480;2023-06-10T06:31:23;13.90;1.00
21259;DHT22;10787;53.364;-1.480;2023-06-10T06:34:07;14.10;1.00
21259;DHT22;10787;53.364;-1.480;2023-06-10T06:36:51;14.10;1.00
21259;DHT22;10787;53.364;-1.480;2023-06-10T06:39:35;14.20;1.00
21259;DHT22;10787;53.364;-1.480;2023-06-10T06:42:20;14.20;1.00
21259;DHT22;10787;53.364;-1.480;2023-06-10T06:45:05;14.20;1.00
21259;DHT22;10787;53.364;-1.480;2023-06-10T06:47:50;14.20;1.00
21259;DHT22;10787;53.364;-1.480;2023-06-10T06:50:35;14.30;1.00
21259;DHT22;10787;53.364;-1.480;2023-06-10T06:53:19;14.40;1.00
21259;DHT22;10787;53.364;-1.480;2023-06-10T06:56:04;14.70;1.00
21259;DHT22;10787;53.364;-1.480;2023-06-10T06:58:48;14.80;1.00
21259;DHT22;10787;53.364;-1.480;2023-06-10T07:01:33;15.00;1.00
21259;DHT22;10787;53.364;-1.480;2023-06-10T07:04:19;15.00;1.00
21259;DHT22;10787;53.364;-1.480;2023-06-10T07:07:07;15.10;1.00
21259;DHT22;10787;53.364;-1.480;2023-06-10T07:09:53;15.20;1.00
21259;DHT22;10787;53.364;-1.480;2023-06-10T07:12:37;15.20;1.00
21259;DHT22;10787;53.364;-1.480;2023-06-10T07:15:21;15.30;1.00
21259;DHT22;10787;53.364;-1.480;2023-06-10T07:18:06;15.50;1.00
21259;DHT22;10787;53.364;-1.480;2023-06-10T07:20:50;15.60;1.00
21259;DHT22;10787;53.364;-1.480;2023-06-10T07:23:35;15.80;1.00
21259;DHT22;10787;53.364;-1.480;2023-06-10T07:26:21;16.00;1.00
21259;DHT22;10787;53.364;-1.480;2023-06-10T07:29:06;16.10;1.00
21259;DHT22;10787;53.364;-1.480;2023-06-10T07:31:50;16.00;1.00
21259;DHT22;10787;53.364;-1.480;2023-06-10T07:34:34;15.90;1.00
21259;DHT22;10787;53.364;-1.480;2023-06-10T07:37:18;15.90;1.00
21259;DHT22;10787;53.364;-1.480;2023-06-10T07:40:04;15.80;1.00
21259;DHT22;10787;53.364;-1.480;2023-06-10T07:42:49;15.80;1.00
21259;DHT22;10787;53.364;-1.480;2023-06-10T07:45:33;15.70;1.00
21259;DHT22;10787;53.364;-1.480;2023-06-10T07:48:18;15.70;1.00
21259;DHT22;10787;53.364;-1.480;2023-06-10T07:51:02;15.80;1.00
21259;DHT22;10787;53.364;-1.480;2023-06-10T07:53:47;16.00;1.00
21259;DHT22;10787;53.364;-1.480;2023-06-10T07:56:31;16.00;1.00
21259;DHT22;10787;53.364;-1.480;2023-06-10T07:59:16;16.00;1.00
21259;DHT22;10787;53.364;-1.480;2023-06-10T08:02:00;16.20;1.00
21259;DHT22;10787;53.364;-1.480;2023-06-10T08:04:44;16.30;1.00
21259;DHT22;10787;53.364;-1.480;2023-06-10T08:07:29;16.30;1.00
21259;DHT22;10787;53.364;-1.480;2023-06-10T08:10:14;16.40;1.00
21259;DHT22;10787;53.364;-1.480;2023-06-10T08:12:59;16.50;1.00
21259;DHT22;10787;53.364;-1.480;2023-06-10T08:15:43;16.80;1.00
21259;DHT22;10787;53.364;-1.480;2023-06-10T08:18:27;16.80;1.00
21259;DHT22;10787;53.364;-1.480;2023-06-10T08:21:11;16.80;1.00
21259;DHT22;10787;53.364;-1.480;2023-06-10T08:23:56;17.00;1.00
21259;DHT22;10787;53.364;-1.480;2023-06-10T08:26:40;17.20;1.00
21259;DHT22;10787;53.364;-1.480;2023-06-10T08:29:25;17.20;1.00
21259;DHT22;10787;53.364;-1.480;2023-06-10T08:32:10;17.30;1.00
21259;DHT22;10787;53.364;-1.480;2023-06-10T08:34:54;17.30;1.00
21259;DHT22;10787;53.364;-1.480;2023-06-10T08:37:39;17.40;1.00
21259;DHT22;10787;53.364;-1.480;2023-06-10T08:40:23;17.50;1.00
21259;DHT22;10787;53.364;-1.480;2023-06-10T08:43:26;17.70;1.00
21259;DHT22;10787;53.364;-1.480;2023-06-10T08:46:14;17.90;1.00
21259;DHT22;10787;53.364;-1.480;2023-06-10T08:49:03;18.00;1.00
21259;DHT22;10787;53.364;-1.480;2023-06-10T08:51:59;18.10;1.00
21259;DHT22;10787;53.364;-1.480;2023-06-10T08:55:01;18.10;1.00
21259;DHT22;10787;53.364;-1.480;2023-06-10T08:57:46;18.10;1.00
21259;DHT22;10787;53.364;-1.480;2023-06-10T09:00:31;18.20;1.00
21259;DHT22;10787;53.364;-1.480;2023-06-10T09:03:16;18.30;1.00
21259;DHT22;10787;53.364;-1.480;2023-06-10T09:06:01;18.40;1.00
21259;DHT22;10787;53.364;-1.480;2023-06-10T09:08:48;18.50;1.00
21259;DHT22;10787;53.364;-1.480;2023-06-10T09:11:32;18.80;1.00
21259;DHT22;10787;53.364;-1.480;2023-06-10T09:14:17;18.90;1.00
21259;DHT22;10787;53.364;-1.480;2023-06-10T09:17:02;19.10;1.00
21259;DHT22;10787;53.364;-1.480;2023-06-10T09:19:47;19.30;1.00
21259;DHT22;10787;53.364;-1.480;2023-06-10T09:22:33;19.50;1.00
21259;DHT22;10787;53.364;-1.480;2023-06-10T09:25:17;19.60;1.00
21259;DHT22;10787;53.364;-1.480;2023-06-10T09:28:02;19.50;1.00
21259;DHT22;10787;53.364;-1.480;2023-06-10T09:30:47;19.50;1.00
21259;DHT22;10787;53.364;-1.480;2023-06-10T09:33:31;19.60;1.00
21259;DHT22;10787;53.364;-1.480;2023-06-10T09:36:23;19.90;1.00
21259;DHT22;10787;53.364;-1.480;2023-06-10T09:39:15;20.10;1.00
21259;DHT22;10787;53.364;-1.480;2023-06-10T09:41:59;20.30;1.00
21259;DHT22;10787;53.364;-1.480;2023-06-10T09:44:51;20.30;1.00
21259;DHT22;10787;53.364;-1.480;2023-06-10T09:47:35;20.30;1.00
21259;DHT22;10787;53.364;-1.480;2023-06-10T09:50:20;20.40;1.00
21259;DHT22;10787;53.364;-1.480;2023-06-10T09:53:06;20.40;1.00
21259;DHT22;10787;53.364;-1.480;2023-06-10T09:55:52;20.50;1.00
21259;DHT22;10787;53.364;-1.480;2023-06-10T09:58:38;20.70;1.00
21259;DHT22;10787;53.364;-1.480;2023-06-10T10:01:23;20.80;1.00
21259;DHT22;10787;53.364;-1.480;2023-06-10T10:04:08;21.00;1.00
21259;DHT22;10787;53.364;-1.480;2023-06-10T10:06:54;21.20;1.00
21259;DHT22;10787;53.364;-1.480;2023-06-10T10:09:40;21.40;1.00
21259;DHT22;10787;53.364;-1.480;2023-06-10T10:12:24;21.70;1.00
21259;DHT22;10787;53.364;-1.480;2023-06-10T10:15:11;21.80;1.00
21259;DHT22;10787;53.364;-1.480;2023-06-10T10:18:06;21.70;1.00
21259;DHT22;10787;53.364;-1.480;2023-06-10T10:20:51;21.70;1.00
21259;DHT22;10787;53.364;-1.480;2023-06-10T10:23:48;21.80;1.00
21259;DHT22;10787;53.364;-1.480;2023-06-10T10:26:36;21.90;1.00
21259;DHT22;10787;53.364;-1.480;2023-06-10T10:29:35;22.20;1.00
21259;DHT22;10787;53.364;-1.480;2023-06-10T10:32:46;22.40;1.00
21259;DHT22;10787;53.364;-1.480;2023-06-10T10:35:36;22.60;1.00
21259;DHT22;10787;53.364;-1.480;2023-06-10T10:38:21;22.80;1.00
21259;DHT22;10787;53.364;-1.480;2023-06-10T10:41:06;23.10;1.00
21259;DHT22;10787;53.364;-1.480;2023-06-10T10:43:52;23.20;1.00
21259;DHT22;10787;53.364;-1.480;2023-06-10T10:47:09;23.30;1.00
21259;DHT22;10787;53.364;-1.480;2023-06-10T10:49:53;23.40;1.00
21259;DHT22;10787;53.364;-1.480;2023-06-10T10:52:56;23.60;1.00
21259;DHT22;10787;53.364;-1.480;2023-06-10T10:55:42;23.60;1.00
21259;DHT22;10787;53.364;-1.480;2023-06-10T10:58:42;23.70;1.00
21259;DHT22;10787;53.364;-1.480;2023-06-10T11:01:42;23.90;1.00
21259;DHT22;10787;53.364;-1.480;2023-06-10T11:04:30;24.10;1.00
21259;DHT22;10787;53.364;-1.480;2023-06-10T11:07:15;24.30;1.00
21259;DHT22;10787;53.364;-1.480;2023-06-10T11:10:09;24.50;1.00
21259;DHT22;10787;53.364;-1.480;2023-06-10T11:12:54;24.40;1.00
21259;DHT22;10787;53.364;-1.480;2023-06-10T11:15:46;24.50;1.00
21259;DHT22;10787;53.364;-1.480;2023-06-10T11:18:53;24.50;1.00
21259;DHT22;10787;53.364;-1.480;2023-06-10T11:22:00;24.70;1.00
21259;DHT22;10787;53.364;-1.480;2023-06-10T11:24:51;24.80;1.00
21259;DHT22;10787;53.364;-1.480;2023-06-10T11:27:39;25.00;1.00
21259;DHT22;10787;53.364;-1.480;2023-06-10T11:30:25;25.30;1.00
21259;DHT22;10787;53.364;-1.480;2023-06-10T11:33:16;25.70;1.00
21259;DHT22;10787;53.364;-1.480;2023-06-10T11:36:00;25.70;1.00
21259;DHT22;10787;53.364;-1.480;2023-06-10T11:38:44;26.00;1.00
21259;DHT22;10787;53.364;-1.480;2023-06-10T11:41:30;26.00;1.00
21259;DHT22;10787;53.364;-1.480;2023-06-10T11:44:15;26.20;1.00
21259;DHT22;10787;53.364;-1.480;2023-06-10T11:46:59;26.20;1.00
21259;DHT22;10787;53.364;-1.480;2023-06-10T11:49:44;26.30;1.00
21259;DHT22;10787;53.364;-1.480;2023-06-10T11:52:30;26.40;1.00
21259;DHT22;10787;53.364;-1.480;2023-06-10T11:55:22;26.70;1.00
21259;DHT22;10787;53.364;-1.480;2023-06-10T11:58:16;27.30;1.00
21259;DHT22;10787;53.364;-1.480;2023-06-10T12:01:00;28.10;1.00
21259;DHT22;10787;53.364;-1.480;2023-06-10T12:03:45;29.10;1.00
21259;DHT22;10787;53.364;-1.480;2023-06-10T12:06:45;29.80;1.00
21259;DHT22;10787;53.364;-1.480;2023-06-10T12:09:31;30.40;1.00
21259;DHT22;10787;53.364;-1.480;2023-06-10T12:12:17;31.10;99.90
21259;DHT22;10787;53.364;-1.480;2023-06-10T12:15:03;31.90;99.90
21259;DHT22;10787;53.364;-1.480;2023-06-10T12:17:49;32.50;99.90
21259;DHT22;10787;53.364;-1.480;2023-06-10T12:20:35;33.30;99.90
21259;DHT22;10787;53.364;-1.480;2023-06-10T12:23:20;33.50;99.90
21259;DHT22;10787;53.364;-1.480;2023-06-10T12:26:05;33.20;99.90
21259;DHT22;10787;53.364;-1.480;2023-06-10T12:28:51;33.40;99.90
21259;DHT22;10787;53.364;-1.480;2023-06-10T12:32:01;33.70;99.90
21259;DHT22;10787;53.364;-1.480;2023-06-10T12:34:47;34.30;99.90
21259;DHT22;10787;53.364;-1.480;2023-06-10T12:37:31;34.70;99.90
21259;DHT22;10787;53.364;-1.480;2023-06-10T12:40:26;34.80;99.90
21259;DHT22;10787;53.364;-1.480;2023-06-10T12:43:11;35.00;99.90
21259;DHT22;10787;53.364;-1.480;2023-06-10T12:46:08;35.10;99.90
21259;DHT22;10787;53.364;-1.480;2023-06-10T12:48:53;35.20;99.90
21259;DHT22;10787;53.364;-1.480;2023-06-10T12:51:39;35.70;99.90
21259;DHT22;10787;53.364;-1.480;2023-06-10T12:54:23;36.40;99.90
21259;DHT22;10787;53.364;-1.480;2023-06-10T12:57:07;36.40;99.90
21259;DHT22;10787;53.364;-1.480;2023-06-10T12:59:52;36.80;99.90
21259;DHT22;10787;53.364;-1.480;2023-06-10T13:02:36;37.30;99.90
21259;DHT22;10787;53.364;-1.480;2023-06-10T13:05:20;37.60;99.90
21259;DHT22;10787;53.364;-1.480;2023-06-10T13:08:08;37.20;99.90
21259;DHT22;10787;53.364;-1.480;2023-06-10T13:10:55;37.20;99.90
21259;DHT22;10787;53.364;-1.480;2023-06-10T13:13:39;37.40;99.90
21259;DHT22;10787;53.364;-1.480;2023-06-10T13:16:24;37.30;99.90
21259;DHT22;10787;53.364;-1.480;2023-06-10T13:19:09;37.40;99.90
21259;DHT22;10787;53.364;-1.480;2023-06-10T13:21:55;38.10;99.90
21259;DHT22;10787;53.364;-1.480;2023-06-10T13:24:39;38.50;99.90
21259;DHT22;10787;53.364;-1.480;2023-06-10T13:27:25;38.60;99.90
21259;DHT22;10787;53.364;-1.480;2023-06-10T13:30:10;38.50;99.90
21259;DHT22;10787;53.364;-1.480;2023-06-10T13:32:55;38.80;99.90
21259;DHT22;10787;53.364;-1.480;2023-06-10T13:35:39;39.20;99.90
21259;DHT22;10787;53.364;-1.480;2023-06-10T13:38:24;39.50;99.90
21259;DHT22;10787;53.364;-1.480;2023-06-10T13:41:08;39.40;99.90
21259;DHT22;10787;53.364;-1.480;2023-06-10T13:43:54;39.70;99.90
21259;DHT22;10787;53.364;-1.480;2023-06-10T13:46:39;40.30;99.90
21259;DHT22;10787;53.364;-1.480;2023-06-10T13:49:23;40.40;99.90
21259;DHT22;10787;53.364;-1.480;2023-06-10T13:52:08;40.80;99.90
21259;DHT22;10787;53.364;-1.480;2023-06-10T13:54:52;41.10;99.90
21259;DHT22;10787;53.364;-1.480;2023-06-10T13:57:36;41.00;99.90
21259;DHT22;10787;53.364;-1.480;2023-06-10T14:00:20;40.60;99.90
21259;DHT22;10787;53.364;-1.480;2023-06-10T14:03:05;40.70;99.90
21259;DHT22;10787;53.364;-1.480;2023-06-10T14:05:49;40.40;99.90
21259;DHT22;10787;53.364;-1.480;2023-06-10T14:08:34;40.60;99.90
21259;DHT22;10787;53.364;-1.480;2023-06-10T14:11:18;41.10;99.90
21259;DHT22;10787;53.364;-1.480;2023-06-10T14:14:03;41.10;99.90
21259;DHT22;10787;53.364;-1.480;2023-06-10T14:16:47;41.70;99.90
21259;DHT22;10787;53.364;-1.480;2023-06-10T14:19:31;42.10;99.90
21259;DHT22;10787;53.364;-1.480;2023-06-10T14:22:15;41.90;99.90
21259;DHT22;10787;53.364;-1.480;2023-06-10T14:24:59;41.60;99.90
21259;DHT22;10787;53.364;-1.480;2023-06-10T14:27:43;41.30;99.90
21259;DHT22;10787;53.364;-1.480;2023-06-10T14:30:27;41.20;99.90
21259;DHT22;10787;53.364;-1.480;2023-06-10T14:33:11;41.70;99.90
21259;DHT22;10787;53.364;-1.480;2023-06-10T14:35:55;42.20;99.90
21259;DHT22;10787;53.364;-1.480;2023-06-10T14:38:40;42.50;99.90
21259;DHT22;10787;53.364;-1.480;2023-06-10T14:41:24;41.50;99.90
21259;DHT22;10787;53.364;-1.480;2023-06-10T14:44:09;41.20;99.90
21259;DHT22;10787;53.364;-1.480;2023-06-10T14:46:54;40.60;99.90
21259;DHT22;10787;53.364;-1.480;2023-06-10T14:49:38;40.90;99.90
21259;DHT22;10787;53.364;-1.480;2023-06-10T14:52:22;40.70;99.90
21259;DHT22;10787;53.364;-1.480;2023-06-10T14:55:06;39.60;99.90
21259;DHT22;10787;53.364;-1.480;2023-06-10T14:57:51;39.40;99.90
21259;DHT22;10787;53.364;-1.480;2023-06-10T15:00:35;40.30;99.90
21259;DHT22;10787;53.364;-1.480;2023-06-10T15:03:19;41.20;99.90
21259;DHT22;10787;53.364;-1.480;2023-06-10T15:06:04;41.20;99.90
21259;DHT22;10787;53.364;-1.480;2023-06-10T15:08:48;39.80;99.90
21259;DHT22;10787;53.364;-1.480;2023-06-10T15:11:32;39.70;99.90
21259;DHT22;10787;53.364;-1.480;2023-06-10T15:14:16;40.30;99.90
21259;DHT22;10787;53.364;-1.480;2023-06-10T15:17:01;40.80;99.90
21259;DHT22;10787;53.364;-1.480;2023-06-10T15:19:46;41.30;99.90
21259;DHT22;10787;53.364;-1.480;2023-06-10T15:22:30;41.40;99.90
21259;DHT22;10787;53.364;-1.480;2023-06-10T15:25:15;41.40;99.90
21259;DHT22;10787;53.364;-1.480;2023-06-10T15:27:59;41.30;99.90
21259;DHT22;10787;53.364;-1.480;2023-06-10T15:30:44;41.30;99.90
21259;DHT22;10787;53.364;-1.480;2023-06-10T15:33:28;41.20;99.90
21259;DHT22;10787;53.364;-1.480;2023-06-10T15:36:12;41.40;99.90
21259;DHT22;10787;53.364;-1.480;2023-06-10T15:39:01;41.70;99.90
21259;DHT22;10787;53.364;-1.480;2023-06-10T15:41:46;41.70;99.90
21259;DHT22;10787;53.364;-1.480;2023-06-10T15:44:30;42.10;99.90
21259;DHT22;10787;53.364;-1.480;2023-06-10T15:47:15;42.60;99.90
21259;DHT22;10787;53.364;-1.480;2023-06-10T15:50:00;41.70;99.90
21259;DHT22;10787;53.364;-1.480;2023-06-10T15:52:44;41.60;99.90
21259;DHT22;10787;53.364;-1.480;2023-06-10T15:55:29;41.70;99.90
21259;DHT22;10787;53.364;-1.480;2023-06-10T15:58:13;41.90;99.90
21259;DHT22;10787;53.364;-1.480;2023-06-10T16:00:57;42.20;99.90
21259;DHT22;10787;53.364;-1.480;2023-06-10T16:03:41;42.20;99.90
21259;DHT22;10787;53.364;-1.480;2023-06-10T16:06:26;42.40;99.90
21259;DHT22;10787;53.364;-1.480;2023-06-10T16:09:10;41.90;99.90
21259;DHT22;10787;53.364;-1.480;2023-06-10T16:11:54;41.20;92.60
21259;DHT22;10787;53.364;-1.480;2023-06-10T16:14:39;40.80;91.00
21259;DHT22;10787;53.364;-1.480;2023-06-10T16:17:23;41.00;97.50
21259;DHT22;10787;53.364;-1.480;2023-06-10T16:20:07;41.20;94.00
21259;DHT22;10787;53.364;-1.480;2023-06-10T16:22:51;41.20;97.50
21259;DHT22;10787;53.364;-1.480;2023-06-10T16:25:36;41.10;97.10
21259;DHT22;10787;53.364;-1.480;2023-06-10T16:28:22;41.10;97.90
21259;DHT22;10787;53.364;-1.480;2023-06-10T16:31:06;41.20;97.30
21259;DHT22;10787;53.364;-1.480;2023-06-10T16:33:51;41.70;99.90
21259;DHT22;10787;53.364;-1.480;2023-06-10T16:36:35;41.90;99.90
21259;DHT22;10787;53.364;-1.480;2023-06-10T16:39:20;42.00;99.90
21259;DHT22;10787;53.364;-1.480;2023-06-10T16:42:04;42.00;99.90
21259;DHT22;10787;53.364;-1.480;2023-06-10T16:44:50;41.70;99.90
21259;DHT22;10787;53.364;-1.480;2023-06-10T16:47:34;41.80;99.90
21259;DHT22;10787;53.364;-1.480;2023-06-10T16:50:18;41.50;99.90
21259;DHT22;10787;53.364;-1.480;2023-06-10T16:53:02;41.30;99.90
21259;DHT22;10787;53.364;-1.480;2023-06-10T16:55:46;40.70;95.70
21259;DHT22;10787;53.364;-1.480;2023-06-10T16:58:31;40.20;94.00
21259;DHT22;10787;53.364;-1.480;2023-06-10T17:01:15;39.80;91.80
21259;DHT22;10787;53.364;-1.480;2023-06-10T17:04:00;40.00;93.60
21259;DHT22;10787;53.364;-1.480;2023-06-10T17:06:44;40.20;95.60
21259;DHT22;10787;53.364;-1.480;2023-06-10T17:09:28;40.20;97.30
21259;DHT22;10787;53.364;-1.480;2023-06-10T17:12:13;39.90;90.00
21259;DHT22;10787;53.364;-1.480;2023-06-10T17:14:57;39.60;90.00
21259;DHT22;10787;53.364;-1.480;2023-06-10T17:17:41;39.40;85.50
21259;DHT22;10787;53.364;-1.480;2023-06-10T17:20:25;39.00;84.20
21259;DHT22;10787;53.364;-1.480;2023-06-10T17:23:11;38.90;96.60
21259;DHT22;10787;53.364;-1.480;2023-06-10T17:25:55;38.70;75.10
21259;DHT22;10787;53.364;-1.480;2023-06-10T17:28:39;38.70;75.50